sensor_id;sensor_type;location;lat;lon;timestamp;P1;durP1;ratioP1;P2;durP2;ratioP2
23745;SDS011;12053;48.878;9.632;2023-05-07T00:02:25;2.40;;;1.85;;
23745;SDS011;12053;48.878;9.632;2023-05-07T00:04:52;2.83;;;1.98;;
23745;SDS011;12053;48.878;9.632;2023-05-07T00:07:20;4.00;;;2.60;;
23745;SDS011;12053;48.878;9.632;2023-05-07T00:09:47;3.20;;;2.33;;
23745;SDS011;12053;48.878;9.632;2023-05-07T00:12:14;2.47;;;2.15;;
23745;SDS011;12053;48.878;9.632;2023-05-07T00:14:41;2.65;;;2.05;;
23745;SDS011;12053;48.878;9.632;2023-05-07T00:17:08;4.13;;;2.00;;
23745;SDS011;12053;48.878;9.632;2023-05-07T00:19:36;2.10;;;1.90;;
23745;SDS011;12053;48.878;9.632;2023-05-07T00:22:03;4.05;;;2.00;;
23745;SDS011;12053;48.878;9.632;2023-05-07T00:24:30;3.90;;;2.10;;
23745;SDS011;12053;48.878;9.632;2023-05-07T00:26:57;3.83;;;2.10;;
23745;SDS011;12053;48.878;9.632;2023-05-07T00:29:24;6.70;;;2.28;;
23745;SDS011;12053;48.878;9.632;2023-05-07T00:31:51;2.35;;;2.15;;
23745;SDS011;12053;48.878;9.632;2023-05-07T00:34:20;2.50;;;2.05;;
23745;SDS011;12053;48.878;9.632;2023-05-07T00:36:48;3.67;;;2.17;;
23745;SDS011;12053;48.878;9.632;2023-05-07T00:39:15;2.92;;;2.30;;
23745;SDS011;12053;48.878;9.632;2023-05-07T00:41:42;4.68;;;1.95;;
23745;SDS011;12053;48.878;9.632;2023-05-07T00:44:10;2.35;;;1.90;;
23745;SDS011;12053;48.878;9.632;2023-05-07T00:46:37;2.70;;;2.20;;
23745;SDS011;12053;48.878;9.632;2023-05-07T00:49:04;5.13;;;2.38;;
23745;SDS011;12053;48.878;9.632;2023-05-07T00:51:32;3.25;;;2.00;;
23745;SDS011;12053;48.878;9.632;2023-05-07T00:54:00;2.10;;;1.95;;
23745;SDS011;12053;48.878;9.632;2023-05-07T00:56:29;2.10;;;1.95;;
23745;SDS011;12053;48.878;9.632;2023-05-07T00:58:56;2.17;;;1.98;;
23745;SDS011;12053;48.878;9.632;2023-05-07T01:01:23;2.55;;;2.20;;
23745;SDS011;12053;48.878;9.632;2023-05-07T01:03:50;3.25;;;2.05;;
23745;SDS011;12053;48.878;9.632;2023-05-07T01:06:18;3.22;;;2.08;;
23745;SDS011;12053;48.878;9.632;2023-05-07T01:08:46;3.20;;;2.15;;
23745;SDS011;12053;48.878;9.632;2023-05-07T01:11:16;5.00;;;2.20;;
23745;SDS011;12053;48.878;9.632;2023-05-07T01:13:46;2.58;;;2.05;;
23745;SDS011;12053;48.878;9.632;2023-05-07T01:16:13;2.55;;;1.80;;
23745;SDS011;12053;48.878;9.632;2023-05-07T01:18:41;2.78;;;1.88;;
23745;SDS011;12053;48.878;9.632;2023-05-07T01:21:08;5.38;;;1.88;;
23745;SDS011;12053;48.878;9.632;2023-05-07T01:23:36;3.20;;;1.85;;
23745;SDS011;12053;48.878;9.632;2023-05-07T01:26:03;3.08;;;1.90;;
23745;SDS011;12053;48.878;9.632;2023-05-07T01:28:31;3.75;;;2.35;;
23745;SDS011;12053;48.878;9.632;2023-05-07T01:31:01;3.92;;;2.05;;
23745;SDS011;12053;48.878;9.632;2023-05-07T01:33:30;4.53;;;2.10;;
23745;SDS011;12053;48.878;9.632;2023-05-07T01:35:58;2.28;;;1.83;;
23745;SDS011;12053;48.878;9.632;2023-05-07T01:38:30;3.03;;;2.08;;
23745;SDS011;12053;48.878;9.632;2023-05-07T01:40:57;2.10;;;1.85;;
23745;SDS011;12053;48.878;9.632;2023-05-07T01:43:24;4.40;;;1.98;;
23745;SDS011;12053;48.878;9.632;2023-05-07T01:45:52;3.15;;;2.10;;
23745;SDS011;12053;48.878;9.632;2023-05-07T01:48:19;6.43;;;2.42;;
23745;SDS011;12053;48.878;9.632;2023-05-07T01:50:47;3.30;;;2.10;;
23745;SDS011;12053;48.878;9.632;2023-05-07T01:53:14;3.88;;;2.30;;
23745;SDS011;12053;48.878;9.632;2023-05-07T01:55:43;3.08;;;2.40;;
23745;SDS011;12053;48.878;9.632;2023-05-07T01:58:10;2.97;;;2.00;;
23745;SDS011;12053;48.878;9.632;2023-05-07T02:00:37;2.47;;;2.28;;
23745;SDS011;12053;48.878;9.632;2023-05-07T02:03:04;2.97;;;2.30;;
23745;SDS011;12053;48.878;9.632;2023-05-07T02:05:32;5.15;;;2.40;;
23745;SDS011;12053;48.878;9.632;2023-05-07T02:07:59;2.50;;;2.30;;
23745;SDS011;12053;48.878;9.632;2023-05-07T02:10:26;4.07;;;1.80;;
23745;SDS011;12053;48.878;9.632;2023-05-07T02:12:53;5.53;;;2.10;;
23745;SDS011;12053;48.878;9.632;2023-05-07T02:15:20;2.97;;;2.17;;
23745;SDS011;12053;48.878;9.632;2023-05-07T02:17:57;3.35;;;2.10;;
23745;SDS011;12053;48.878;9.632;2023-05-07T02:20:25;5.47;;;2.28;;
23745;SDS011;12053;48.878;9.632;2023-05-07T02:22:52;5.75;;;2.50;;
23745;SDS011;12053;48.878;9.632;2023-05-07T02:25:19;2.45;;;2.03;;
23745;SDS011;12053;48.878;9.632;2023-05-07T02:27:47;2.70;;;2.20;;
23745;SDS011;12053;48.878;9.632;2023-05-07T02:30:14;3.67;;;2.38;;
23745;SDS011;12053;48.878;9.632;2023-05-07T02:32:41;3.63;;;2.60;;
23745;SDS011;12053;48.878;9.632;2023-05-07T02:35:08;3.90;;;2.38;;
23745;SDS011;12053;48.878;9.632;2023-05-07T02:37:36;3.30;;;2.30;;
23745;SDS011;12053;48.878;9.632;2023-05-07T02:40:03;2.30;;;2.10;;
23745;SDS011;12053;48.878;9.632;2023-05-07T02:42:30;3.17;;;2.38;;
23745;SDS011;12053;48.878;9.632;2023-05-07T02:44:58;4.35;;;2.60;;
23745;SDS011;12053;48.878;9.632;2023-05-07T02:47:25;5.95;;;2.50;;
23745;SDS011;12053;48.878;9.632;2023-05-07T02:49:54;2.38;;;2.17;;
23745;SDS011;12053;48.878;9.632;2023-05-07T02:52:21;4.68;;;2.35;;
23745;SDS011;12053;48.878;9.632;2023-05-07T02:54:49;2.63;;;2.30;;
23745;SDS011;12053;48.878;9.632;2023-05-07T02:57:16;2.20;;;2.05;;
23745;SDS011;12053;48.878;9.632;2023-05-07T02:59:43;3.20;;;1.95;;
23745;SDS011;12053;48.878;9.632;2023-05-07T03:02:10;4.13;;;2.38;;
23745;SDS011;12053;48.878;9.632;2023-05-07T03:04:39;2.88;;;2.53;;
23745;SDS011;12053;48.878;9.632;2023-05-07T03:07:06;3.97;;;2.30;;
23745;SDS011;12053;48.878;9.632;2023-05-07T03:09:33;4.25;;;2.92;;
23745;SDS011;12053;48.878;9.632;2023-05-07T03:12:00;24.23;;;12.63;;
23745;SDS011;12053;48.878;9.632;2023-05-07T03:14:28;93.22;;;39.33;;
23745;SDS011;12053;48.878;9.632;2023-05-07T03:16:55;98.40;;;45.30;;
23745;SDS011;12053;48.878;9.632;2023-05-07T03:19:22;17.27;;;8.85;;
23745;SDS011;12053;48.878;9.632;2023-05-07T03:21:49;5.43;;;3.83;;
23745;SDS011;12053;48.878;9.632;2023-05-07T03:24:16;6.35;;;3.20;;
23745;SDS011;12053;48.878;9.632;2023-05-07T03:26:43;7.20;;;2.58;;
23745;SDS011;12053;48.878;9.632;2023-05-07T03:29:10;4.45;;;2.75;;
23745;SDS011;12053;48.878;9.632;2023-05-07T03:31:38;2.83;;;2.42;;
23745;SDS011;12053;48.878;9.632;2023-05-07T03:34:05;3.72;;;2.40;;
23745;SDS011;12053;48.878;9.632;2023-05-07T03:36:32;3.17;;;2.50;;
23745;SDS011;12053;48.878;9.632;2023-05-07T03:38:59;4.88;;;2.50;;
23745;SDS011;12053;48.878;9.632;2023-05-07T03:41:26;2.58;;;2.30;;
23745;SDS011;12053;48.878;9.632;2023-05-07T03:43:53;2.75;;;2.30;;
23745;SDS011;12053;48.878;9.632;2023-05-07T03:46:20;8.50;;;2.72;;
23745;SDS011;12053;48.878;9.632;2023-05-07T03:48:48;4.38;;;2.78;;
23745;SDS011;12053;48.878;9.632;2023-05-07T03:51:15;3.90;;;2.63;;
23745;SDS011;12053;48.878;9.632;2023-05-07T03:53:42;3.53;;;2.42;;
23745;SDS011;12053;48.878;9.632;2023-05-07T03:56:09;3.45;;;2.60;;
23745;SDS011;12053;48.878;9.632;2023-05-07T03:58:36;2.85;;;2.63;;
23745;SDS011;12053;48.878;9.632;2023-05-07T04:01:03;2.75;;;2.33;;
23745;SDS011;12053;48.878;9.632;2023-05-07T04:03:30;5.18;;;2.67;;
23745;SDS011;12053;48.878;9.632;2023-05-07T04:05:58;4.88;;;2.50;;
23745;SDS011;12053;48.878;9.632;2023-05-07T04:08:25;4.95;;;2.70;;
23745;SDS011;12053;48.878;9.632;2023-05-07T04:10:55;3.30;;;2.60;;
23745;SDS011;12053;48.878;9.632;2023-05-07T04:13:23;4.63;;;2.58;;
23745;SDS011;12053;48.878;9.632;2023-05-07T04:15:51;5.32;;;2.50;;
23745;SDS011;12053;48.878;9.632;2023-05-07T04:18:18;4.45;;;2.22;;
23745;SDS011;12053;48.878;9.632;2023-05-07T04:20:46;4.30;;;2.40;;
23745;SDS011;12053;48.878;9.632;2023-05-07T04:23:13;3.42;;;2.50;;
23745;SDS011;12053;48.878;9.632;2023-05-07T04:25:40;4.03;;;2.35;;
23745;SDS011;12053;48.878;9.632;2023-05-07T04:28:07;4.20;;;2.65;;
23745;SDS011;12053;48.878;9.632;2023-05-07T04:30:34;7.30;;;2.53;;
23745;SDS011;12053;48.878;9.632;2023-05-07T04:33:02;3.13;;;2.20;;
23745;SDS011;12053;48.878;9.632;2023-05-07T04:35:29;3.00;;;2.65;;
23745;SDS011;12053;48.878;9.632;2023-05-07T04:37:57;2.75;;;2.20;;
23745;SDS011;12053;48.878;9.632;2023-05-07T04:40:24;2.20;;;2.00;;
23745;SDS011;12053;48.878;9.632;2023-05-07T04:42:51;3.20;;;2.13;;
23745;SDS011;12053;48.878;9.632;2023-05-07T04:45:19;3.10;;;2.22;;
23745;SDS011;12053;48.878;9.632;2023-05-07T04:47:46;4.25;;;2.50;;
23745;SDS011;12053;48.878;9.632;2023-05-07T04:50:14;3.42;;;2.40;;
23745;SDS011;12053;48.878;9.632;2023-05-07T04:52:41;2.67;;;2.33;;
23745;SDS011;12053;48.878;9.632;2023-05-07T04:55:08;2.60;;;2.40;;
23745;SDS011;12053;48.878;9.632;2023-05-07T04:57:35;2.60;;;2.33;;
23745;SDS011;12053;48.878;9.632;2023-05-07T05:00:05;2.08;;;1.88;;
23745;SDS011;12053;48.878;9.632;2023-05-07T05:02:34;3.97;;;2.20;;
23745;SDS011;12053;48.878;9.632;2023-05-07T05:05:02;2.00;;;1.70;;
23745;SDS011;12053;48.878;9.632;2023-05-07T05:07:29;2.40;;;2.20;;
23745;SDS011;12053;48.878;9.632;2023-05-07T05:09:56;2.30;;;2.10;;
23745;SDS011;12053;48.878;9.632;2023-05-07T05:12:24;3.22;;;2.05;;
23745;SDS011;12053;48.878;9.632;2023-05-07T05:14:51;2.10;;;1.90;;
23745;SDS011;12053;48.878;9.632;2023-05-07T05:17:18;2.10;;;1.90;;
23745;SDS011;12053;48.878;9.632;2023-05-07T05:19:45;2.80;;;2.30;;
23745;SDS011;12053;48.878;9.632;2023-05-07T05:22:12;2.42;;;1.98;;
23745;SDS011;12053;48.878;9.632;2023-05-07T05:24:39;2.20;;;2.00;;
23745;SDS011;12053;48.878;9.632;2023-05-07T05:27:06;2.42;;;1.88;;
23745;SDS011;12053;48.878;9.632;2023-05-07T05:29:34;2.63;;;1.75;;
23745;SDS011;12053;48.878;9.632;2023-05-07T05:32:01;3.50;;;2.10;;
23745;SDS011;12053;48.878;9.632;2023-05-07T05:34:28;2.10;;;2.00;;
23745;SDS011;12053;48.878;9.632;2023-05-07T05:36:56;4.60;;;2.42;;
23745;SDS011;12053;48.878;9.632;2023-05-07T05:39:23;3.75;;;2.50;;
23745;SDS011;12053;48.878;9.632;2023-05-07T05:41:50;2.85;;;2.20;;
23745;SDS011;12053;48.878;9.632;2023-05-07T05:44:17;3.10;;;2.03;;
23745;SDS011;12053;48.878;9.632;2023-05-07T05:46:44;2.33;;;2.13;;
23745;SDS011;12053;48.878;9.632;2023-05-07T05:49:12;3.78;;;2.10;;
23745;SDS011;12053;48.878;9.632;2023-05-07T05:51:39;2.38;;;2.20;;
23745;SDS011;12053;48.878;9.632;2023-05-07T05:54:06;2.65;;;2.33;;
23745;SDS011;12053;48.878;9.632;2023-05-07T05:56:33;2.40;;;2.20;;
23745;SDS011;12053;48.878;9.632;2023-05-07T05:59:00;4.80;;;2.30;;
23745;SDS011;12053;48.878;9.632;2023-05-07T06:01:27;2.58;;;2.30;;
23745;SDS011;12053;48.878;9.632;2023-05-07T06:03:55;2.88;;;1.92;;
23745;SDS011;12053;48.878;9.632;2023-05-07T06:06:22;3.97;;;2.25;;
23745;SDS011;12053;48.878;9.632;2023-05-07T06:08:50;2.58;;;1.83;;
23745;SDS011;12053;48.878;9.632;2023-05-07T06:11:17;2.80;;;1.67;;
23745;SDS011;12053;48.878;9.632;2023-05-07T06:13:44;2.65;;;1.88;;
23745;SDS011;12053;48.878;9.632;2023-05-07T06:16:11;4.35;;;1.67;;
23745;SDS011;12053;48.878;9.632;2023-05-07T06:18:38;6.05;;;2.08;;
23745;SDS011;12053;48.878;9.632;2023-05-07T06:21:05;3.15;;;1.88;;
23745;SDS011;12053;48.878;9.632;2023-05-07T06:23:32;2.45;;;1.80;;
23745;SDS011;12053;48.878;9.632;2023-05-07T06:26:00;3.00;;;1.70;;
23745;SDS011;12053;48.878;9.632;2023-05-07T06:28:27;2.65;;;1.58;;
23745;SDS011;12053;48.878;9.632;2023-05-07T06:30:54;1.88;;;1.77;;
23745;SDS011;12053;48.878;9.632;2023-05-07T06:33:21;4.78;;;1.85;;
23745;SDS011;12053;48.878;9.632;2023-05-07T06:35:48;1.70;;;1.60;;
23745;SDS011;12053;48.878;9.632;2023-05-07T06:38:15;2.55;;;1.83;;
23745;SDS011;12053;48.878;9.632;2023-05-07T06:40:43;6.18;;;1.75;;
23745;SDS011;12053;48.878;9.632;2023-05-07T06:43:10;2.30;;;1.83;;
23745;SDS011;12053;48.878;9.632;2023-05-07T06:45:37;1.70;;;1.45;;
23745;SDS011;12053;48.878;9.632;2023-05-07T06:48:04;1.83;;;1.52;;
23745;SDS011;12053;48.878;9.632;2023-05-07T06:50:32;3.28;;;2.08;;
23745;SDS011;12053;48.878;9.632;2023-05-07T06:52:59;3.35;;;1.90;;
23745;SDS011;12053;48.878;9.632;2023-05-07T06:55:26;2.95;;;1.80;;
23745;SDS011;12053;48.878;9.632;2023-05-07T06:57:53;2.25;;;1.80;;
23745;SDS011;12053;48.878;9.632;2023-05-07T07:00:20;3.10;;;1.70;;
23745;SDS011;12053;48.878;9.632;2023-05-07T07:02:47;2.92;;;1.80;;
23745;SDS011;12053;48.878;9.632;2023-05-07T07:05:15;1.60;;;1.50;;
23745;SDS011;12053;48.878;9.632;2023-05-07T07:07:42;2.55;;;1.58;;
23745;SDS011;12053;48.878;9.632;2023-05-07T07:10:09;5.80;;;2.00;;
23745;SDS011;12053;48.878;9.632;2023-05-07T07:12:36;2.10;;;1.55;;
23745;SDS011;12053;48.878;9.632;2023-05-07T07:15:04;4.28;;;1.58;;
23745;SDS011;12053;48.878;9.632;2023-05-07T07:17:31;2.47;;;1.80;;
23745;SDS011;12053;48.878;9.632;2023-05-07T07:19:58;4.45;;;1.63;;
23745;SDS011;12053;48.878;9.632;2023-05-07T07:22:25;2.08;;;1.40;;
23745;SDS011;12053;48.878;9.632;2023-05-07T07:24:52;6.60;;;1.65;;
23745;SDS011;12053;48.878;9.632;2023-05-07T07:27:20;4.13;;;1.52;;
23745;SDS011;12053;48.878;9.632;2023-05-07T07:29:47;2.08;;;1.80;;
23745;SDS011;12053;48.878;9.632;2023-05-07T07:32:14;6.05;;;1.90;;
23745;SDS011;12053;48.878;9.632;2023-05-07T07:34:41;3.90;;;1.60;;
23745;SDS011;12053;48.878;9.632;2023-05-07T07:37:08;1.65;;;1.50;;
23745;SDS011;12053;48.878;9.632;2023-05-07T07:39:36;1.95;;;1.55;;
23745;SDS011;12053;48.878;9.632;2023-05-07T07:42:07;2.30;;;1.73;;
23745;SDS011;12053;48.878;9.632;2023-05-07T07:44:34;2.10;;;1.60;;
23745;SDS011;12053;48.878;9.632;2023-05-07T07:47:01;3.33;;;2.00;;
23745;SDS011;12053;48.878;9.632;2023-05-07T07:49:28;1.98;;;1.80;;
23745;SDS011;12053;48.878;9.632;2023-05-07T07:51:55;2.47;;;1.50;;
23745;SDS011;12053;48.878;9.632;2023-05-07T07:54:25;2.90;;;1.70;;
23745;SDS011;12053;48.878;9.632;2023-05-07T07:56:52;3.72;;;1.55;;
23745;SDS011;12053;48.878;9.632;2023-05-07T07:59:20;2.47;;;1.70;;
23745;SDS011;12053;48.878;9.632;2023-05-07T08:01:47;3.15;;;1.80;;
23745;SDS011;12053;48.878;9.632;2023-05-07T08:04:19;2.20;;;1.88;;
23745;SDS011;12053;48.878;9.632;2023-05-07T08:06:47;3.13;;;1.90;;
23745;SDS011;12053;48.878;9.632;2023-05-07T08:09:14;2.15;;;1.85;;
23745;SDS011;12053;48.878;9.632;2023-05-07T08:11:41;2.60;;;1.75;;
23745;SDS011;12053;48.878;9.632;2023-05-07T08:14:08;1.55;;;1.45;;
23745;SDS011;12053;48.878;9.632;2023-05-07T08:16:35;2.83;;;2.00;;
23745;SDS011;12053;48.878;9.632;2023-05-07T08:19:02;1.60;;;1.50;;
23745;SDS011;12053;48.878;9.632;2023-05-07T08:21:30;2.42;;;1.42;;
23745;SDS011;12053;48.878;9.632;2023-05-07T08:23:59;3.22;;;1.50;;
23745;SDS011;12053;48.878;9.632;2023-05-07T08:26:27;3.83;;;1.65;;
23745;SDS011;12053;48.878;9.632;2023-05-07T08:28:54;2.05;;;1.85;;
23745;SDS011;12053;48.878;9.632;2023-05-07T08:31:21;2.53;;;1.95;;
23745;SDS011;12053;48.878;9.632;2023-05-07T08:33:48;1.55;;;1.45;;
23745;SDS011;12053;48.878;9.632;2023-05-07T08:36:15;2.40;;;1.60;;
23745;SDS011;12053;48.878;9.632;2023-05-07T08:38:45;5.13;;;1.90;;
23745;SDS011;12053;48.878;9.632;2023-05-07T08:41:12;1.67;;;1.40;;
23745;SDS011;12053;48.878;9.632;2023-05-07T08:43:40;1.48;;;1.38;;
23745;SDS011;12053;48.878;9.632;2023-05-07T08:46:09;3.22;;;1.80;;
23745;SDS011;12053;48.878;9.632;2023-05-07T08:48:39;3.90;;;1.75;;
23745;SDS011;12053;48.878;9.632;2023-05-07T08:51:06;2.72;;;1.80;;
23745;SDS011;12053;48.878;9.632;2023-05-07T08:53:33;3.80;;;1.73;;
23745;SDS011;12053;48.878;9.632;2023-05-07T08:56:00;3.08;;;1.60;;
23745;SDS011;12053;48.878;9.632;2023-05-07T08:58:28;2.22;;;1.40;;
23745;SDS011;12053;48.878;9.632;2023-05-07T09:00:55;2.95;;;1.88;;
23745;SDS011;12053;48.878;9.632;2023-05-07T09:03:22;1.60;;;1.50;;
23745;SDS011;12053;48.878;9.632;2023-05-07T09:05:50;4.22;;;1.52;;
23745;SDS011;12053;48.878;9.632;2023-05-07T09:08:17;2.78;;;1.80;;
23745;SDS011;12053;48.878;9.632;2023-05-07T09:10:44;2.15;;;1.83;;
23745;SDS011;12053;48.878;9.632;2023-05-07T09:13:11;2.35;;;1.60;;
23745;SDS011;12053;48.878;9.632;2023-05-07T09:15:40;3.13;;;1.48;;
23745;SDS011;12053;48.878;9.632;2023-05-07T09:18:08;2.75;;;1.50;;
23745;SDS011;12053;48.878;9.632;2023-05-07T09:20:38;1.90;;;1.60;;
23745;SDS011;12053;48.878;9.632;2023-05-07T09:23:06;1.85;;;1.40;;
23745;SDS011;12053;48.878;9.632;2023-05-07T09:25:33;2.92;;;1.90;;
23745;SDS011;12053;48.878;9.632;2023-05-07T09:28:02;2.85;;;1.70;;
23745;SDS011;12053;48.878;9.632;2023-05-07T09:30:30;4.82;;;1.85;;
23745;SDS011;12053;48.878;9.632;2023-05-07T09:33:01;3.90;;;1.40;;
23745;SDS011;12053;48.878;9.632;2023-05-07T09:35:29;3.42;;;1.60;;
23745;SDS011;12053;48.878;9.632;2023-05-07T09:37:57;3.10;;;1.70;;
23745;SDS011;12053;48.878;9.632;2023-05-07T09:40:28;3.05;;;1.58;;
23745;SDS011;12053;48.878;9.632;2023-05-07T09:42:55;1.45;;;1.35;;
23745;SDS011;12053;48.878;9.632;2023-05-07T09:45:26;1.63;;;1.42;;
23745;SDS011;12053;48.878;9.632;2023-05-07T09:47:57;2.17;;;1.45;;
23745;SDS011;12053;48.878;9.632;2023-05-07T09:50:26;2.00;;;1.45;;
23745;SDS011;12053;48.878;9.632;2023-05-07T09:52:54;2.45;;;1.65;;
23745;SDS011;12053;48.878;9.632;2023-05-07T09:55:22;3.25;;;1.52;;
23745;SDS011;12053;48.878;9.632;2023-05-07T09:57:50;2.13;;;1.33;;
23745;SDS011;12053;48.878;9.632;2023-05-07T10:00:21;3.10;;;1.80;;
23745;SDS011;12053;48.878;9.632;2023-05-07T10:02:48;3.20;;;1.38;;
23745;SDS011;12053;48.878;9.632;2023-05-07T10:05:18;2.72;;;1.63;;
23745;SDS011;12053;48.878;9.632;2023-05-07T10:07:48;1.55;;;1.20;;
23745;SDS011;12053;48.878;9.632;2023-05-07T10:10:16;1.80;;;1.25;;
23745;SDS011;12053;48.878;9.632;2023-05-07T10:12:44;2.35;;;1.33;;
23745;SDS011;12053;48.878;9.632;2023-05-07T10:15:12;2.72;;;1.58;;
23745;SDS011;12053;48.878;9.632;2023-05-07T10:17:40;2.83;;;1.90;;
23745;SDS011;12053;48.878;9.632;2023-05-07T10:20:08;2.20;;;1.67;;
23745;SDS011;12053;48.878;9.632;2023-05-07T10:22:40;2.60;;;1.70;;
23745;SDS011;12053;48.878;9.632;2023-05-07T10:25:13;4.43;;;1.85;;
23745;SDS011;12053;48.878;9.632;2023-05-07T10:27:41;3.53;;;1.88;;
23745;SDS011;12053;48.878;9.632;2023-05-07T10:32:47;2.53;;;1.58;;
23745;SDS011;12053;48.878;9.632;2023-05-07T10:35:20;3.13;;;1.88;;
23745;SDS011;12053;48.878;9.632;2023-05-07T10:37:48;2.72;;;2.08;;
23745;SDS011;12053;48.878;9.632;2023-05-07T10:40:16;3.50;;;1.95;;
23745;SDS011;12053;48.878;9.632;2023-05-07T10:42:56;3.75;;;1.98;;
23745;SDS011;12053;48.878;9.632;2023-05-07T10:45:24;2.67;;;2.10;;
23745;SDS011;12053;48.878;9.632;2023-05-07T10:50:46;4.15;;;1.63;;
23745;SDS011;12053;48.878;9.632;2023-05-07T10:55:47;2.63;;;1.98;;
23745;SDS011;12053;48.878;9.632;2023-05-07T11:00:57;3.25;;;1.67;;
23745;SDS011;12053;48.878;9.632;2023-05-07T11:03:25;1.67;;;1.52;;
23745;SDS011;12053;48.878;9.632;2023-05-07T11:06:08;3.55;;;1.70;;
23745;SDS011;12053;48.878;9.632;2023-05-07T11:08:55;3.40;;;1.60;;
23745;SDS011;12053;48.878;9.632;2023-05-07T11:14:08;1.75;;;1.58;;
23745;SDS011;12053;48.878;9.632;2023-05-07T11:16:35;2.55;;;1.40;;
23745;SDS011;12053;48.878;9.632;2023-05-07T11:19:03;3.90;;;1.60;;
23745;SDS011;12053;48.878;9.632;2023-05-07T11:21:31;1.85;;;1.60;;
23745;SDS011;12053;48.878;9.632;2023-05-07T11:23:59;3.75;;;1.75;;
23745;SDS011;12053;48.878;9.632;2023-05-07T11:26:27;1.67;;;1.50;;
23745;SDS011;12053;48.878;9.632;2023-05-07T11:28:54;4.25;;;2.05;;
23745;SDS011;12053;48.878;9.632;2023-05-07T11:31:26;2.47;;;1.42;;
23745;SDS011;12053;48.878;9.632;2023-05-07T11:33:55;2.95;;;1.40;;
23745;SDS011;12053;48.878;9.632;2023-05-07T11:36:23;2.58;;;1.35;;
23745;SDS011;12053;48.878;9.632;2023-05-07T11:38:50;3.53;;;1.60;;
23745;SDS011;12053;48.878;9.632;2023-05-07T11:41:17;2.47;;;1.17;;
23745;SDS011;12053;48.878;9.632;2023-05-07T11:43:53;4.03;;;1.40;;
23745;SDS011;12053;48.878;9.632;2023-05-07T11:46:22;2.38;;;1.40;;
23745;SDS011;12053;48.878;9.632;2023-05-07T11:48:49;2.25;;;1.20;;
23745;SDS011;12053;48.878;9.632;2023-05-07T11:51:21;3.03;;;1.48;;
23745;SDS011;12053;48.878;9.632;2023-05-07T11:53:48;3.30;;;1.40;;
23745;SDS011;12053;48.878;9.632;2023-05-07T11:56:16;2.33;;;1.42;;
23745;SDS011;12053;48.878;9.632;2023-05-07T11:58:44;1.95;;;1.48;;
23745;SDS011;12053;48.878;9.632;2023-05-07T12:01:12;3.05;;;1.60;;
23745;SDS011;12053;48.878;9.632;2023-05-07T12:03:40;4.03;;;1.50;;
23745;SDS011;12053;48.878;9.632;2023-05-07T12:06:09;1.50;;;1.35;;
23745;SDS011;12053;48.878;9.632;2023-05-07T12:08:37;2.70;;;1.33;;
23745;SDS011;12053;48.878;9.632;2023-05-07T12:11:09;2.28;;;1.55;;
23745;SDS011;12053;48.878;9.632;2023-05-07T12:13:37;3.40;;;1.58;;
23745;SDS011;12053;48.878;9.632;2023-05-07T12:16:05;1.88;;;1.30;;
23745;SDS011;12053;48.878;9.632;2023-05-07T12:18:33;2.65;;;1.48;;
23745;SDS011;12053;48.878;9.632;2023-05-07T12:21:01;1.70;;;1.60;;
23745;SDS011;12053;48.878;9.632;2023-05-07T12:23:29;1.83;;;1.48;;
23745;SDS011;12053;48.878;9.632;2023-05-07T12:25:56;2.15;;;1.50;;
23745;SDS011;12053;48.878;9.632;2023-05-07T12:28:23;2.10;;;1.40;;
23745;SDS011;12053;48.878;9.632;2023-05-07T12:30:51;3.45;;;1.65;;
23745;SDS011;12053;48.878;9.632;2023-05-07T12:33:19;2.67;;;1.70;;
23745;SDS011;12053;48.878;9.632;2023-05-07T12:35:50;2.95;;;1.70;;
23745;SDS011;12053;48.878;9.632;2023-05-07T12:38:17;2.55;;;1.48;;
23745;SDS011;12053;48.878;9.632;2023-05-07T12:40:48;2.83;;;1.80;;
23745;SDS011;12053;48.878;9.632;2023-05-07T12:43:21;1.98;;;1.80;;
23745;SDS011;12053;48.878;9.632;2023-05-07T12:45:51;2.65;;;1.70;;
23745;SDS011;12053;48.878;9.632;2023-05-07T12:48:19;4.72;;;1.55;;
23745;SDS011;12053;48.878;9.632;2023-05-07T12:50:49;2.33;;;1.50;;
23745;SDS011;12053;48.878;9.632;2023-05-07T12:53:19;2.67;;;1.60;;
23745;SDS011;12053;48.878;9.632;2023-05-07T12:55:48;1.90;;;1.50;;
23745;SDS011;12053;48.878;9.632;2023-05-07T12:58:19;4.20;;;1.75;;
23745;SDS011;12053;48.878;9.632;2023-05-07T13:00:47;3.08;;;1.88;;
23745;SDS011;12053;48.878;9.632;2023-05-07T13:03:26;1.58;;;1.48;;
23745;SDS011;12053;48.878;9.632;2023-05-07T13:06:01;3.13;;;1.52;;
23745;SDS011;12053;48.878;9.632;2023-05-07T13:10:59;1.60;;;1.50;;
23745;SDS011;12053;48.878;9.632;2023-05-07T13:13:33;4.57;;;1.90;;
23745;SDS011;12053;48.878;9.632;2023-05-07T13:16:01;2.58;;;1.83;;
23745;SDS011;12053;48.878;9.632;2023-05-07T13:18:29;3.33;;;1.80;;
23745;SDS011;12053;48.878;9.632;2023-05-07T13:20:57;1.65;;;1.55;;
23745;SDS011;12053;48.878;9.632;2023-05-07T13:23:24;1.52;;;1.42;;
23745;SDS011;12053;48.878;9.632;2023-05-07T13:25:52;1.73;;;1.40;;
23745;SDS011;12053;48.878;9.632;2023-05-07T13:28:20;2.33;;;1.60;;
23745;SDS011;12053;48.878;9.632;2023-05-07T13:30:47;2.47;;;1.80;;
23745;SDS011;12053;48.878;9.632;2023-05-07T13:33:15;3.10;;;1.77;;
23745;SDS011;12053;48.878;9.632;2023-05-07T13:35:42;3.22;;;1.80;;
23745;SDS011;12053;48.878;9.632;2023-05-07T13:38:09;2.95;;;2.10;;
23745;SDS011;12053;48.878;9.632;2023-05-07T13:40:36;3.60;;;1.90;;
23745;SDS011;12053;48.878;9.632;2023-05-07T13:43:05;1.95;;;1.70;;
23745;SDS011;12053;48.878;9.632;2023-05-07T13:45:32;4.32;;;2.67;;
23745;SDS011;12053;48.878;9.632;2023-05-07T13:48:00;5.72;;;2.42;;
23745;SDS011;12053;48.878;9.632;2023-05-07T13:50:27;3.97;;;2.20;;
23745;SDS011;12053;48.878;9.632;2023-05-07T13:52:55;2.65;;;2.42;;
23745;SDS011;12053;48.878;9.632;2023-05-07T13:55:23;4.93;;;2.50;;
23745;SDS011;12053;48.878;9.632;2023-05-07T13:57:54;5.75;;;2.30;;
23745;SDS011;12053;48.878;9.632;2023-05-07T14:00:23;3.40;;;2.10;;
23745;SDS011;12053;48.878;9.632;2023-05-07T14:02:50;4.57;;;2.08;;
23745;SDS011;12053;48.878;9.632;2023-05-07T14:05:18;3.00;;;2.47;;
23745;SDS011;12053;48.878;9.632;2023-05-07T14:07:45;3.70;;;2.58;;
23745;SDS011;12053;48.878;9.632;2023-05-07T14:10:13;3.15;;;2.40;;
23745;SDS011;12053;48.878;9.632;2023-05-07T14:12:41;2.63;;;2.17;;
23745;SDS011;12053;48.878;9.632;2023-05-07T14:15:08;2.55;;;2.05;;
23745;SDS011;12053;48.878;9.632;2023-05-07T14:17:36;5.88;;;2.25;;
23745;SDS011;12053;48.878;9.632;2023-05-07T14:20:03;3.65;;;2.05;;
23745;SDS011;12053;48.878;9.632;2023-05-07T14:22:32;3.20;;;1.98;;
23745;SDS011;12053;48.878;9.632;2023-05-07T14:24:59;4.03;;;1.83;;
23745;SDS011;12053;48.878;9.632;2023-05-07T14:27:39;3.85;;;2.88;;
23745;SDS011;12053;48.878;9.632;2023-05-07T14:30:07;2.80;;;2.30;;
23745;SDS011;12053;48.878;9.632;2023-05-07T14:32:35;4.82;;;2.65;;
23745;SDS011;12053;48.878;9.632;2023-05-07T14:35:03;4.80;;;2.22;;
23745;SDS011;12053;48.878;9.632;2023-05-07T14:37:30;4.43;;;2.65;;
23745;SDS011;12053;48.878;9.632;2023-05-07T14:39:57;4.75;;;2.50;;
23745;SDS011;12053;48.878;9.632;2023-05-07T14:42:24;3.63;;;2.50;;
23745;SDS011;12053;48.878;9.632;2023-05-07T14:44:51;2.70;;;2.20;;
23745;SDS011;12053;48.878;9.632;2023-05-07T14:47:19;6.13;;;2.35;;
23745;SDS011;12053;48.878;9.632;2023-05-07T14:49:46;5.90;;;2.20;;
23745;SDS011;12053;48.878;9.632;2023-05-07T14:52:13;4.22;;;2.45;;
23745;SDS011;12053;48.878;9.632;2023-05-07T14:54:41;4.70;;;2.50;;
23745;SDS011;12053;48.878;9.632;2023-05-07T14:57:09;5.25;;;2.65;;
23745;SDS011;12053;48.878;9.632;2023-05-07T14:59:39;4.07;;;2.53;;
23745;SDS011;12053;48.878;9.632;2023-05-07T15:02:07;6.68;;;2.83;;
23745;SDS011;12053;48.878;9.632;2023-05-07T15:04:35;4.47;;;3.13;;
23745;SDS011;12053;48.878;9.632;2023-05-07T15:07:02;5.25;;;2.92;;
23745;SDS011;12053;48.878;9.632;2023-05-07T15:09:29;4.80;;;2.67;;